Racecast

Kaleb Dekoeyer

Temperance Bedford (MI) · 12 · SECMI D1MONROE · Compare head to head

Athlete rating 107.4 2025 TF season
Best race 114.1 XC
Races 79
Seasons 8 2018 — 2025

RankedNation #74164·MI #3182·MI D1 #1769·SEC #160·Team #27 ?

Rating scale ?
Speed rating — all races

Cross Country

XC speed rating

2024 XC 109.0

Temperance Bedford (MI) · Grade 12

Date Meet Event Result Place Rating Difficulty PR/SR Flags
2024-10-26 Lake Erie Metro Park OFFICIAL 5000m 18:25.5 15th · 1st on team 111.7 +0.007 ★CR CSR
2024-10-17 Hudson Mills Metropark - OFFICIAL 5000m 18:43.48 31st · 3rd on team 108.8 -0.006 CSR
2024-10-12 Munson Park 5000m 18:15.6 19th · 4th on team 112.9 +0.007 ★CR SR CSR RSR
2024-09-28 Lake Erie Metro Park OFFICIAL 5000m 18:55.5 10th · 5th on team 108.8 +0.007 CSR
2024-09-24 Pioneer HS 5000m 19:40.4 55th · 8th on team 106.0 +0.018 CSR
2024-09-21 Ella Sharp Park OFFICIAL 5000m 18:42.3 226th · 8th on team 109.5 -0.001 ★CR CSR RSR
2024-09-10 Willow Metropark OFFICIAL 5000m -0.003 ★CR CSR
2024-09-07 Hedges Boyer Park 5000m 18:37.5 75th · 2nd on team 109.4 -0.003 ★CR SR CSR RSR
2024-08-31 BGSU 5000m 19:12.3 72nd · 8th on team 106.0 -0.003 ★CR SR CSR
2024-08-23 Ford Field/EE Ice Arena(LIVONIA) OFFICIAL 5000m 19:12.5 26th · 3rd on team 108.0 +0.013 SR CSR RSR

2023 XC 104.9

Temperance Bedford (MI) · Grade 11

Date Meet Event Result Place Rating Difficulty PR/SR Flags
2023-10-14 Munson Park 5000m +0.007 CSR
2023-09-16 Ottawa Park Golf Course 5000m 20:28.9 89th · 12th on team 100.1 -0.001 ★CR CSR
2023-08-18 Ford Field/EE Ice Arena(LIVONIA) OFFICIAL 5000m 18:50.8 92nd · 9th on team 109.8 +0.013 ★CR SR CSR RSR

2022 XC 109.9

Temperance Bedford (MI) · Grade 10

Date Meet Event Result Place Rating Difficulty PR/SR Flags
2022-10-29 Milan HS OFFICIAL 5000m 18:09.8 31st · 4th on team 114.1 +0.008 ★PR ★CR ★R SR CSR RSR
2022-10-20 Hudson Mills Metropark - OFFICIAL 5000m 18:31.7 54th · 5th on team 110.0 -0.006 PR ★CR SR CSR
2022-10-15 Munson Park 5000m 19:04 19th · 9th on team 109.2 +0.007 CR CSR
2022-10-01 Lake Erie Metro Park OFFICIAL 5000m 18:35 14th · 2nd on team 112.3 +0.007 PR CR R SR CSR RSR
2022-09-28 Pioneer HS 5000m 18:55.2 57th · 10th on team 110.4 +0.018 ★CR CSR
2022-09-23 Ella Sharp Park OFFICIAL 5000m 18:44.5 56th · 3rd on team 110.7 -0.001 PR CR SR CSR RSR
2022-09-14 Ella Sharp Park OFFICIAL 5000m 19:22.1 89th · 7th on team 107.3 -0.001 CR CSR
2022-09-10 Hedges Boyer Park 5000m 19:08.8 26th · 1st on team 108.3 -0.003 PR CR SR CSR RSR
2022-08-19 Ford Field/EE Ice Arena(LIVONIA) OFFICIAL 5000m 19:45.9 112th · 9th on team 106.4 +0.013 PR CR SR CSR RSR

2021 XC 101.5

Temperance Bedford (MI) · Grade 9

Date Meet Event Result Place Rating Difficulty PR/SR Flags
2021-10-30 Lake Erie Metro Park OFFICIAL 5000m 20:43.9 35th · 7th on team 101.2 +0.007 CR CSR
2021-10-21 Hudson Mills Metropark - OFFICIAL 5000m 20:05.3 104th · 14th on team 104.2 -0.006 CR CSR
2021-10-16 Munson Park 5000m 21:34.3 27th · 12th on team 98.0 +0.007 CR CSR
2021-09-24 Ella Sharp Park OFFICIAL 5000m 20:01.2 88th · 10th on team 106.0 -0.001 PR CR SR CSR RSR
2021-09-11 Hedges Boyer Park 5000m 20:43.7 143rd · 10th on team 101.3 -0.003 CR CSR
2021-09-04 BGSU 5000m 20:20.4 120th · 19th on team 102.6 -0.003 PR CR SR CSR RSR
2021-08-28 Walsh Park 5000m 21:58.3 28th · 9th on team 97.1 +0.012 PR ★CR SR CSR RSR

2020 XC 107.0

Temperance Bedford (MI) · Grade 8

Date Meet Event Result Place Rating Difficulty PR/SR Flags
2020-10-14 Indian Creek OFFICIAL 3200m 13:26 23rd · 19th on team 111.5 -0.001 ★PR ★CR R SR CSR RSR
2020-09-19 Indian Creek OFFICIAL 3218m 14:21 19th · 17th on team 104.8 -0.001 ★CR SR CSR
2020-09-16 Rolling Hills 3218m 14:49.5 16th · 15th on team 106.9 +0.023 ★CR SR CSR RSR
2020-09-09 Indian Creek OFFICIAL 3200m 14:17 15th · 15th on team 104.6 -0.001 SR CSR RSR

2019 XC 106.7

Temperance Bedford (MI) · Grade 7

Date Meet Event Result Place Rating Difficulty PR/SR Flags
2019-10-12 Munson Park 3200m 14:00.6 50th · 20th on team 107.5 +0.000 ★CR CSR
2019-10-09 Indian Creek OFFICIAL 3200m 13:33 23rd · 10th on team 111.2 -0.001 PR CR R SR CSR RSR
2019-10-05 Munson Park 3218m 14:14.7 63rd · 22nd on team 105.4 +0.000 ★CR SR CSR
2019-09-28 Lake Erie Metro Park OFFICIAL 3218m 14:19 85th · 19th on team 104.8 -0.000 SR CSR
2019-09-24 Hudson Mills Metropark - OFFICIAL 3218m 14:44.3 34th · 12th on team 106.0 +0.020 ★CR SR CSR
2019-09-21 Maumee Bay State Park 3200m 15:04 98th · 16th on team 104.2 +0.037 ★CR CSR
2019-09-14 Ottawa Park Golf Course 3200m 14:25.1 61st · 24th on team 107.5 +0.027 ★CR SR CSR RSR

2018 XC 102.0

Temperance Bedford (MI) · Grade 6

Date Meet Event Result Place Rating Difficulty PR/SR Flags
2018-10-13 Munson Park 3200m 14:10.5 41st · 16th on team 105.4 +0.000 CR CSR
2018-10-10 Saline High School 3200m 13:53.8 28th · 6th on team 107.8 -0.021 PR ★CR R SR CSR RSR
2018-10-06 Munson Park 3218m 14:15.1 37th · 13th on team 107.2 +0.000 CR R CSR RSR
2018-09-29 Lake Erie Metro Park OFFICIAL 3218m 14:13.2 76th · 13th on team 106.3 -0.000 ★CR CSR
2018-09-25 Hudson Mills Metropark - OFFICIAL 3218m 14:52.4 23rd · 6th on team 76.5 +0.020 CR CSR
2018-09-12 Tecumseh HS 3218m 13:54.2 27th · 6th on team 107.0 -0.008 ★PR ★CR R SR CSR RSR
2018-08-30 Eastwood HS 3200m 14:46 60th · 8th on team 103.8 +0.017 PR ★CR R SR CSR RSR

Track & Field

TF speed rating

2025 TF 105.4

Temperance Bedford (MI) · Grade 12

Date Meet Event Result Place Rating Difficulty PR/SR Flags
2025-05-01 Knight Classic 2025 1600m 5:12.68 5th · 2nd on team 108.0 -0.033 ★PR SR RSR
2025-04-29 SEC-HS: Lincoln @ Bedford 1600m 5:23.37 7th · 6th on team 105.9 -0.026
2025-04-22 SEC-HS: Bedford & Pioneer @ Monroe 1600m 5:16.52 16th · 4th on team 107.4 -0.022 RSR
2025-04-15 SEC-HS: Bedford & Dexter @ Skyline 1600m 5:31.22 33rd · 4th on team 103.9 -0.021
2025-04-07 SEC-HS: Huron & Saline @ Bedford 800m 2:29.87 17th · 6th on team 101.4 -0.026 SR
2025-04-07 SEC-HS: Huron & Saline @ Bedford 1600m 5:25.41 16th · 5th on team 104.3 -0.026
2025-03-20 '25 Lincoln Spring Indoor Classic 1600m 5:15.48 11th · 2nd on team 107.1 -0.029 PR SR RSR

2024 TF 106.5

Temperance Bedford (MI) · Grade 11

Date Meet Event Result Place Rating Difficulty PR/SR Flags
2024-04-30 SEC-HS: Bedford @ Lincoln 3200m 11:14.44 4th · 4th on team 109.7 -0.021 ★PR SR RSR
2024-04-16 SEC-HS: Skyline & Bedford at Dexter 3200m 11:38.33 13th · 7th on team 105.2 -0.027 PR SR RSR
2024-04-09 SEC HS: Huron & Saline at Bedford 3200m 11:45 16th · 5th on team 104.5 -0.026 PR SR RSR

2023 TF 104.6

Temperance Bedford (MI) · Grade 10

Date Meet Event Result Place Rating Difficulty PR/SR Flags
2023-05-02 SEC-HS: Monroe @ Bedford 800m 2:26.13 3rd · 2nd on team 105.9 -0.026 RSR
2023-04-25 SEC-HS: Bedford & Lincoln @ Skyline 800m 2:25.24 14th · 4th on team 104.9 -0.021 ★PR SR RSR
2023-04-10 SEC-HS: Pioneer & Dexter @ Bedford 1600m 5:28.55 29th · 7th on team 102.9 -0.026 PR SR RSR

2022 TF 101.3

Temperance Bedford (MI) · Grade 9

Date Meet Event Result Place Rating Difficulty PR/SR Flags
2022-05-26 Dundee Beck FRESHMAN Invitational 800m 2:28.1 11th · 4th on team 104.8 -0.013 PR SR RSR
2022-05-18 '22 Lincoln JV Invite 800m 2:37.65 20th · 3rd on team 98.1 -0.021
2022-05-18 '22 Lincoln JV Invite 1600m 5:36.18 37th · 2nd on team 102.2 -0.021
2022-05-04 SEC-HS: Skyline at Bedford 1600m 5:30.68 14th · 8th on team 103.5 -0.026 PR SR RSR
2022-04-26 SEC-HS: Bedford & Monroe at Dexter 1600m 5:37.59 31st · 9th on team 101.8 -0.027 RSR
2022-04-26 SEC-HS: Bedford & Monroe at Dexter 800m 2:35.59 22nd · 8th on team 99.1 -0.027 PR SR
2022-04-05 Bedford @ Whitmer Dual 1600m 5:37.5 5th · 4th on team 99.8 -0.034 PR SR RSR

2021 TF 108.5

Temperance Bedford (MI) · Grade 8

Date Meet Event Result Place Rating Difficulty PR/SR Flags
2021-05-10 Adrian MS @ Bedford MS hj 3'08.00 -0.026
2021-05-10 Adrian MS @ Bedford MS 1600m 6:16.62 5th · 2nd on team 107.9 -0.026
2021-05-06 Bedford JH @ Monroe MS hj NH -0.022
2021-05-03 Lincoln MS vs Bedford MS hj NH -0.021
2021-05-03 Lincoln MS vs Bedford MS 1600m 6:05.98 3rd · 2nd on team 111.2 -0.021 PR SR RSR
2021-04-29 Dexter MS @ Bedford MS 1600m 6:22.44 8th · 5th on team 106.4 -0.026 PR SR RSR

2019 TF 98.4

Temperance Bedford (MI) · Grade 6

Date Meet Event Result Place Rating Difficulty PR/SR Flags
2019-05-13 Lincoln MS @ Bedford MS 200m 36.83 14th · 11th on team -0.026 ★PR SR
2019-05-13 Lincoln MS @ Bedford MS 400m 1:20.11 15th · 10th on team -0.026
2019-05-06 Ypsilanti MS @ Bedford 800m 3:05.61 5th · 5th on team 99.4 -0.026 PR SR RSR
2019-05-06 Ypsilanti MS @ Bedford 1600m 6:59.74 8th · 8th on team 97.2 -0.026 PR SR
2019-04-22 SEC-MS: Adrian @ Bedford 400m 1:15.93 3rd · 1st on team -0.026 ★PR SR
2019-04-22 SEC-MS: Adrian @ Bedford 3200m 14:52.5 5th · 2nd on team 98.4 -0.026 PR SR RSR